createdAt,value
2022-12-15T00:01:58.239Z,0.80
2022-12-15T00:04:51.484Z,0.70
2022-12-15T00:07:43.550Z,0.80
2022-12-15T00:10:32.157Z,0.90
2022-12-15T00:13:18.235Z,0.90
2022-12-15T00:16:08.963Z,0.90
2022-12-15T00:18:56.228Z,0.90
2022-12-15T00:21:46.314Z,0.90
2022-12-15T00:24:35.845Z,0.90
2022-12-15T00:27:24.249Z,1.00
2022-12-15T00:30:11.540Z,0.90
2022-12-15T00:33:01.292Z,0.90
2022-12-15T00:35:51.430Z,0.90
2022-12-15T00:38:41.299Z,1.00
2022-12-15T00:41:12.011Z,1.00
2022-12-15T00:46:44.347Z,0.90
2022-12-15T00:49:32.693Z,0.90
2022-12-15T00:52:21.236Z,0.90
2022-12-15T00:55:09.103Z,0.90
2022-12-15T00:57:58.422Z,1.00
2022-12-15T01:00:47.401Z,1.00
2022-12-15T01:03:39.200Z,1.10
2022-12-15T01:06:34.811Z,1.00
2022-12-15T01:09:24.195Z,0.90
2022-12-15T01:12:12.622Z,0.90
2022-12-15T01:15:01.227Z,0.90
2022-12-15T01:17:50.270Z,0.90
2022-12-15T01:20:17.997Z,0.90
2022-12-15T01:22:55.854Z,0.90
2022-12-15T01:25:27.822Z,0.90
2022-12-15T01:27:55.875Z,0.90
2022-12-15T01:30:27.018Z,0.90
2022-12-15T01:32:54.831Z,0.90
2022-12-15T01:35:24.914Z,0.90
2022-12-15T01:37:55.839Z,0.90
2022-12-15T01:40:42.221Z,1.00
2022-12-15T01:43:18.296Z,0.90
2022-12-15T01:46:21.417Z,0.90
2022-12-15T01:49:11.870Z,0.90
2022-12-15T01:51:47.296Z,0.90
2022-12-15T01:54:21.066Z,1.00
2022-12-15T01:56:54.890Z,1.00
2022-12-15T01:59:46.906Z,1.00
2022-12-15T02:02:23.982Z,1.00
2022-12-15T02:04:55.033Z,1.00
2022-12-15T02:07:31.982Z,1.00
2022-12-15T02:10:01.969Z,1.00
2022-12-15T02:12:51.874Z,1.00
2022-12-15T02:15:52.946Z,1.00
2022-12-15T02:18:42.056Z,0.90
2022-12-15T02:22:01.289Z,0.90
2022-12-15T02:25:18.860Z,0.90
2022-12-15T02:28:12.520Z,0.80
2022-12-15T02:30:43.038Z,0.90
2022-12-15T02:33:31.006Z,0.80
2022-12-15T02:36:09.523Z,0.80
2022-12-15T02:38:43.377Z,0.80
2022-12-15T02:41:42.216Z,0.90
2022-12-15T02:44:37.248Z,0.80
2022-12-15T02:47:46.568Z,0.70
2022-12-15T02:51:03.058Z,0.80
2022-12-15T02:53:55.515Z,0.90
2022-12-15T02:56:56.412Z,0.90
2022-12-15T03:00:07.560Z,0.80
2022-12-15T03:02:42.006Z,0.90
2022-12-15T03:05:15.602Z,0.90
2022-12-15T03:10:26.622Z,1.00
2022-12-15T03:12:55.690Z,0.90
2022-12-15T03:15:28.058Z,1.00
2022-12-15T03:18:00.252Z,1.00
2022-12-15T03:20:29.800Z,1.00
2022-12-15T03:22:58.699Z,0.90
2022-12-15T03:25:26.769Z,0.90
2022-12-15T03:27:55.757Z,1.00
2022-12-15T03:30:25.651Z,1.00
2022-12-15T03:32:56.596Z,1.00
2022-12-15T03:35:26.672Z,1.00
2022-12-15T03:37:56.990Z,1.00
2022-12-15T03:40:25.717Z,1.00
2022-12-15T03:42:53.278Z,0.90
2022-12-15T03:45:25.748Z,0.90
2022-12-15T03:47:55.025Z,1.10
2022-12-15T03:50:33.462Z,0.90
2022-12-15T03:53:04.117Z,0.90
2022-12-15T03:55:35.915Z,0.80
2022-12-15T03:58:04.795Z,0.80
2022-12-15T04:00:35.203Z,0.80
2022-12-15T04:03:06.575Z,0.80
2022-12-15T04:05:36.099Z,0.80
2022-12-15T04:08:08.265Z,0.90
2022-12-15T04:10:39.708Z,0.90
2022-12-15T04:13:12.688Z,0.90
2022-12-15T04:15:43.662Z,0.80
2022-12-15T04:18:14.695Z,0.90
2022-12-15T04:20:46.898Z,0.80
2022-12-15T04:23:19.957Z,0.90
2022-12-15T04:26:10.336Z,0.80
2022-12-15T04:28:58.186Z,0.80
2022-12-15T04:31:49.740Z,0.80
2022-12-15T04:34:46.736Z,0.80
2022-12-15T04:37:33.160Z,0.90
2022-12-15T04:40:20.184Z,0.90
2022-12-15T04:43:09.702Z,0.90
2022-12-15T04:45:57.573Z,0.80
2022-12-15T04:48:44.684Z,0.90
2022-12-15T04:51:34.284Z,0.80
2022-12-15T04:54:22.255Z,0.90
2022-12-15T04:57:10.161Z,0.80
2022-12-15T05:00:03.262Z,0.80
2022-12-15T05:02:50.186Z,0.80
2022-12-15T05:05:40.166Z,0.80
2022-12-15T05:08:28.822Z,0.80
2022-12-15T05:11:18.156Z,0.70
2022-12-15T05:14:05.989Z,0.80
2022-12-15T05:16:55.284Z,0.80
2022-12-15T05:19:48.118Z,0.70
2022-12-15T05:22:36.171Z,0.80
2022-12-15T05:25:26.023Z,0.80
2022-12-15T05:28:15.467Z,0.80
2022-12-15T05:31:04.381Z,0.80
2022-12-15T05:33:34.026Z,0.80
2022-12-15T05:36:04.610Z,0.80
2022-12-15T05:38:32.741Z,0.80
2022-12-15T05:41:00.465Z,0.80
2022-12-15T05:43:29.616Z,0.80
2022-12-15T05:46:06.779Z,0.80
2022-12-15T05:48:37.042Z,0.80
2022-12-15T05:51:10.924Z,0.80
2022-12-15T05:53:41.363Z,0.80
2022-12-15T05:56:12.112Z,0.90
2022-12-15T05:58:45.461Z,0.90
2022-12-15T06:01:15.760Z,1.00
2022-12-15T06:03:49.472Z,1.00
2022-12-15T06:06:21.464Z,1.00
2022-12-15T06:08:50.464Z,1.00
2022-12-15T06:11:20.102Z,1.00
2022-12-15T06:13:47.677Z,1.00
2022-12-15T06:16:19.321Z,1.10
2022-12-15T06:18:58.459Z,1.10
2022-12-15T06:21:35.879Z,1.10
2022-12-15T06:24:05.471Z,1.10
2022-12-15T06:26:36.174Z,1.10
2022-12-15T06:29:08.633Z,1.10
2022-12-15T06:31:41.011Z,1.10
2022-12-15T06:34:14.275Z,1.10
2022-12-15T06:36:44.416Z,1.10
2022-12-15T06:39:17.384Z,1.10
2022-12-15T06:41:49.351Z,1.10
2022-12-15T06:44:18.084Z,1.10
2022-12-15T06:46:49.390Z,1.00
2022-12-15T06:49:17.719Z,1.10
2022-12-15T06:51:46.067Z,1.10
2022-12-15T06:54:16.119Z,1.10
2022-12-15T06:59:34.547Z,1.10
2022-12-15T07:02:06.456Z,1.20
2022-12-15T07:04:37.663Z,1.20
2022-12-15T07:07:16.907Z,1.10
2022-12-15T07:09:45.681Z,1.10
2022-12-15T07:12:14.291Z,1.00
2022-12-15T07:14:44.817Z,1.10
2022-12-15T07:17:23.452Z,1.10
2022-12-15T07:19:55.953Z,1.10
2022-12-15T07:22:27.104Z,1.20
2022-12-15T07:24:55.498Z,1.20
2022-12-15T07:27:25.296Z,1.20
2022-12-15T07:29:53.851Z,1.10
2022-12-15T07:32:22.608Z,1.20
2022-12-15T07:34:52.352Z,1.20
2022-12-15T07:37:21.688Z,1.20
2022-12-15T07:39:52.454Z,1.20
2022-12-15T07:42:26.004Z,1.30
2022-12-15T07:44:55.065Z,1.20
2022-12-15T07:47:25.051Z,1.30
2022-12-15T07:49:55.286Z,1.40
2022-12-15T07:52:24.252Z,1.30
2022-12-15T07:54:51.668Z,1.30
2022-12-15T07:57:23.389Z,1.30
2022-12-15T07:59:51.880Z,1.30
2022-12-15T08:02:21.091Z,1.40
2022-12-15T08:04:53.608Z,1.40
2022-12-15T08:07:25.081Z,1.40
2022-12-15T08:10:02.352Z,1.30
2022-12-15T08:12:31.328Z,1.40
2022-12-15T08:14:59.685Z,1.30
2022-12-15T08:17:30.414Z,1.40
2022-12-15T08:20:09.510Z,1.40
2022-12-15T08:22:38.472Z,1.40
2022-12-15T08:25:05.928Z,1.40
2022-12-15T08:27:34.778Z,1.40
2022-12-15T08:30:04.754Z,1.40
2022-12-15T08:32:36.457Z,1.40
2022-12-15T08:35:25.442Z,1.50
2022-12-15T08:37:59.847Z,1.60
2022-12-15T08:40:32.877Z,1.50
2022-12-15T08:43:00.239Z,1.60
2022-12-15T08:45:29.290Z,1.50
2022-12-15T08:48:01.351Z,1.60
2022-12-15T08:50:30.087Z,1.70
2022-12-15T08:53:29.172Z,1.70
2022-12-15T08:55:50.604Z,1.70
2022-12-15T08:58:22.552Z,1.70
2022-12-15T09:00:51.802Z,1.70
2022-12-15T09:03:22.906Z,1.60
2022-12-15T09:05:52.751Z,1.60
2022-12-15T09:08:24.907Z,1.60
2022-12-15T09:10:55.702Z,1.60
2022-12-15T09:13:26.297Z,1.60
2022-12-15T09:16:15.973Z,1.70
2022-12-15T09:18:48.320Z,1.60
2022-12-15T09:21:18.872Z,1.60
2022-12-15T09:23:56.179Z,1.60
2022-12-15T09:26:26.208Z,1.70
2022-12-15T09:31:42.744Z,1.80
2022-12-15T09:34:15.952Z,1.90
2022-12-15T09:36:50.576Z,1.90
2022-12-15T09:39:19.525Z,2.00
2022-12-15T09:42:00.354Z,2.00
2022-12-15T09:44:30.181Z,2.10
2022-12-15T09:47:40.860Z,2.20
2022-12-15T09:50:15.453Z,2.30
2022-12-15T09:52:55.907Z,2.20
2022-12-15T09:55:30.780Z,2.20
2022-12-15T09:58:37.946Z,2.20
2022-12-15T10:01:31.989Z,2.10
2022-12-15T10:04:40.589Z,2.40
2022-12-15T10:07:39.451Z,2.40
2022-12-15T10:10:29.732Z,2.50
2022-12-15T10:13:05.766Z,2.70
2022-12-15T10:15:55.178Z,2.70
2022-12-15T10:21:38.281Z,2.40
2022-12-15T10:24:14.943Z,2.50
2022-12-15T10:26:47.092Z,2.50
2022-12-15T10:29:28.248Z,2.40
2022-12-15T10:32:50.940Z,2.50
2022-12-15T10:35:30.329Z,2.40
2022-12-15T10:38:01.037Z,2.40
2022-12-15T10:41:01.232Z,2.40
2022-12-15T10:43:39.555Z,2.30
2022-12-15T10:46:19.150Z,2.30
2022-12-15T10:49:00.286Z,2.30
2022-12-15T10:51:44.825Z,2.40
2022-12-15T10:54:19.264Z,2.20
2022-12-15T10:56:59.885Z,2.20
2022-12-15T10:59:38.668Z,2.20
2022-12-15T11:02:35.584Z,2.20
2022-12-15T11:05:17.602Z,2.10
2022-12-15T11:08:17.222Z,2.20
2022-12-15T11:11:18.761Z,2.20
2022-12-15T11:14:10.588Z,2.20
2022-12-15T11:16:52.748Z,2.10
2022-12-15T11:20:02.272Z,2.10
2022-12-15T11:22:44.636Z,2.20
2022-12-15T11:25:46.628Z,2.20
2022-12-15T11:28:20.807Z,2.20
2022-12-15T11:31:02.315Z,2.20
2022-12-15T11:33:30.140Z,2.40
2022-12-15T11:36:33.032Z,2.30
2022-12-15T11:39:18.090Z,2.20
2022-12-15T11:42:00.413Z,2.20
2022-12-15T11:44:54.893Z,2.20
2022-12-15T11:47:29.448Z,2.00
2022-12-15T11:50:19.313Z,2.10
2022-12-15T11:53:16.934Z,2.10
2022-12-15T11:56:03.804Z,2.00
2022-12-15T11:59:19.239Z,2.00
2022-12-15T12:02:25.423Z,2.10
2022-12-15T12:05:25.641Z,2.10
2022-12-15T12:08:18.335Z,2.10
2022-12-15T12:11:20.665Z,2.10
2022-12-15T12:13:59.943Z,2.20
2022-12-15T12:17:14.176Z,2.10
2022-12-15T12:19:54.230Z,2.00
2022-12-15T12:22:52.788Z,2.10
2022-12-15T12:25:27.044Z,2.00
2022-12-15T12:27:58.536Z,2.00
2022-12-15T12:30:51.046Z,2.00
2022-12-15T12:33:39.078Z,1.90
2022-12-15T12:36:13.033Z,2.00
2022-12-15T12:38:51.177Z,1.90
2022-12-15T12:41:48.893Z,1.90
2022-12-15T12:44:38.123Z,1.90
2022-12-15T12:47:28.349Z,2.00
2022-12-15T12:50:02.233Z,2.00
2022-12-15T12:53:02.010Z,1.90
2022-12-15T12:55:42.573Z,1.90
2022-12-15T12:58:44.758Z,1.90
2022-12-15T13:01:40.710Z,1.90
2022-12-15T13:04:17.713Z,2.00
2022-12-15T13:06:47.243Z,2.00
2022-12-15T13:09:36.783Z,1.90
2022-12-15T13:12:27.497Z,1.80
2022-12-15T13:14:58.425Z,1.80
2022-12-15T13:17:32.991Z,1.80
2022-12-15T13:20:03.460Z,1.80
2022-12-15T13:22:40.023Z,1.70
2022-12-15T13:25:53.659Z,1.70
2022-12-15T13:28:43.462Z,1.80
2022-12-15T13:31:32.692Z,1.90
2022-12-15T13:34:13.334Z,1.90
2022-12-15T13:36:46.150Z,1.80
2022-12-15T13:39:31.788Z,1.80
2022-12-15T13:42:33.539Z,1.80
2022-12-15T13:45:31.514Z,1.80
2022-12-15T13:48:06.449Z,1.80
2022-12-15T13:50:44.117Z,1.80
2022-12-15T13:53:30.191Z,1.80
2022-12-15T13:56:09.753Z,1.80
2022-12-15T13:58:49.121Z,1.80
2022-12-15T14:01:27.268Z,1.80
2022-12-15T14:04:03.744Z,1.70
2022-12-15T14:06:40.483Z,1.80
2022-12-15T14:09:14.221Z,1.70
2022-12-15T14:14:39.415Z,1.90
2022-12-15T14:17:17.861Z,1.70
2022-12-15T14:19:55.550Z,1.70
2022-12-15T14:22:30.544Z,1.70
2022-12-15T14:25:25.311Z,1.70
2022-12-15T14:27:52.693Z,1.80
2022-12-15T14:30:39.763Z,1.80
2022-12-15T14:33:14.726Z,1.80
2022-12-15T14:35:49.536Z,1.70
2022-12-15T14:38:49.251Z,1.70
2022-12-15T14:41:28.853Z,1.60
2022-12-15T14:44:36.960Z,1.70
2022-12-15T14:46:57.075Z,1.70
2022-12-15T14:49:51.903Z,1.70
2022-12-15T14:52:35.098Z,1.70
2022-12-15T14:55:32.547Z,1.70
2022-12-15T14:58:03.731Z,1.70
2022-12-15T15:00:49.314Z,1.70
2022-12-15T15:03:11.193Z,1.70
2022-12-15T15:03:28.803Z,1.70
2022-12-15T15:06:00.053Z,1.60
2022-12-15T15:08:39.405Z,1.60
2022-12-15T15:11:29.821Z,1.60
2022-12-15T15:14:03.370Z,1.60
2022-12-15T15:16:31.161Z,1.60
2022-12-15T15:19:05.128Z,1.60
2022-12-15T15:21:39.131Z,1.60
2022-12-15T15:24:28.449Z,1.60
2022-12-15T15:27:34.943Z,1.60
2022-12-15T15:30:40.496Z,1.70
2022-12-15T15:33:09.960Z,1.60
2022-12-15T15:35:39.076Z,1.60
2022-12-15T15:38:25.914Z,1.60
2022-12-15T15:40:58.467Z,1.50
2022-12-15T15:43:28.244Z,1.40
2022-12-15T15:46:17.456Z,1.30
2022-12-15T15:49:10.321Z,1.40
2022-12-15T15:51:39.542Z,1.50
2022-12-15T15:54:13.105Z,1.40
2022-12-15T15:56:44.334Z,1.40
2022-12-15T15:59:18.329Z,1.30
2022-12-15T16:01:58.826Z,1.30
2022-12-15T16:04:29.073Z,1.50
2022-12-15T16:06:59.897Z,1.40
2022-12-15T16:09:27.835Z,1.40
2022-12-15T16:11:58.199Z,1.40
2022-12-15T16:14:29.028Z,1.30
2022-12-15T16:17:07.548Z,1.30
2022-12-15T16:19:39.628Z,1.30
2022-12-15T16:22:18.237Z,1.40
2022-12-15T16:24:48.767Z,1.30
2022-12-15T16:27:19.174Z,1.40
2022-12-15T16:29:50.276Z,1.40
2022-12-15T16:32:22.468Z,1.30
2022-12-15T16:34:52.605Z,1.30
2022-12-15T16:37:32.497Z,1.30
2022-12-15T16:40:18.296Z,1.40
2022-12-15T16:42:56.611Z,1.40
2022-12-15T16:45:30.026Z,1.40
2022-12-15T16:47:59.767Z,1.40
2022-12-15T16:50:41.095Z,1.40
2022-12-15T16:53:23.508Z,1.40
2022-12-15T16:55:55.186Z,1.40
2022-12-15T16:58:25.834Z,1.40
2022-12-15T17:00:56.987Z,1.40
2022-12-15T17:03:28.655Z,1.30
2022-12-15T17:06:01.130Z,1.30
2022-12-15T17:09:02.519Z,1.30
2022-12-15T17:11:30.941Z,1.30
2022-12-15T17:14:00.879Z,1.30
2022-12-15T17:16:31.407Z,1.20
2022-12-15T17:18:59.594Z,1.30
2022-12-15T17:21:36.536Z,1.30
2022-12-15T17:24:10.163Z,1.40
2022-12-15T17:26:40.253Z,1.40
2022-12-15T17:29:18.296Z,1.30
2022-12-15T17:31:47.522Z,1.30
2022-12-15T17:34:36.297Z,1.30
2022-12-15T17:37:14.211Z,1.30
2022-12-15T17:39:51.223Z,1.30
2022-12-15T17:42:22.184Z,1.30
2022-12-15T17:44:52.814Z,1.30
2022-12-15T17:47:26.347Z,1.20
2022-12-15T17:49:55.113Z,1.20
2022-12-15T17:52:34.470Z,1.20
2022-12-15T17:55:30.328Z,1.20
2022-12-15T17:58:19.747Z,1.10
2022-12-15T18:01:04.286Z,1.20
2022-12-15T18:03:35.380Z,1.20
2022-12-15T18:06:04.352Z,1.20
2022-12-15T18:08:36.572Z,1.20
2022-12-15T18:11:06.054Z,1.20
2022-12-15T18:13:35.665Z,1.20
2022-12-15T18:16:04.007Z,1.20
2022-12-15T18:18:34.117Z,1.10
2022-12-15T18:21:18.181Z,1.10
2022-12-15T18:23:50.260Z,1.10
2022-12-15T18:29:10.314Z,1.00
2022-12-15T18:31:38.831Z,1.00
2022-12-15T18:34:16.041Z,1.00
2022-12-15T18:36:45.731Z,0.90
2022-12-15T18:39:26.429Z,0.90
2022-12-15T18:41:57.367Z,1.00
2022-12-15T18:44:32.110Z,0.90
2022-12-15T18:47:01.234Z,1.00
2022-12-15T18:49:31.055Z,1.00
2022-12-15T18:52:01.485Z,1.00
2022-12-15T18:54:34.308Z,0.90
2022-12-15T18:57:03.640Z,0.90
2022-12-15T18:59:32.167Z,1.10
2022-12-15T19:02:02.617Z,1.40
2022-12-15T19:04:36.691Z,1.20
2022-12-15T19:07:11.717Z,1.10
2022-12-15T19:09:44.356Z,1.00
2022-12-15T19:12:21.927Z,1.00
2022-12-15T19:14:52.797Z,1.00
2022-12-15T19:17:44.791Z,1.00
2022-12-15T19:20:40.110Z,1.00
2022-12-15T19:23:10.529Z,1.00
2022-12-15T19:25:40.052Z,0.90
2022-12-15T19:28:21.859Z,0.90
2022-12-15T19:30:51.036Z,0.90
2022-12-15T19:33:22.350Z,0.90
2022-12-15T19:35:52.429Z,0.90
2022-12-15T19:38:33.318Z,0.90
2022-12-15T19:41:02.714Z,0.90
2022-12-15T19:43:31.631Z,0.90
2022-12-15T19:46:04.603Z,0.90
2022-12-15T19:48:33.164Z,1.00
2022-12-15T19:51:06.195Z,0.90
2022-12-15T19:53:38.885Z,0.90
2022-12-15T19:56:24.271Z,0.90
2022-12-15T19:58:52.295Z,0.90
2022-12-15T20:01:22.163Z,0.90
2022-12-15T20:03:57.578Z,0.90
2022-12-15T20:06:31.974Z,0.90
2022-12-15T20:09:03.487Z,0.80
2022-12-15T20:11:33.526Z,0.80
2022-12-15T20:14:12.252Z,0.80
2022-12-15T20:16:41.197Z,0.70
2022-12-15T20:19:10.952Z,0.70
2022-12-15T20:21:41.219Z,0.80
2022-12-15T20:24:21.418Z,0.80
2022-12-15T20:26:51.175Z,0.80
2022-12-15T20:29:31.974Z,0.80
2022-12-15T20:32:00.885Z,0.80
2022-12-15T20:37:33.072Z,0.70
2022-12-15T20:40:01.940Z,0.80
2022-12-15T20:42:41.483Z,0.70
2022-12-15T20:45:17.334Z,0.70
2022-12-15T20:47:48.120Z,0.70
2022-12-15T20:50:36.844Z,0.70
2022-12-15T20:53:25.543Z,0.80
2022-12-15T20:55:55.444Z,0.70
2022-12-15T20:58:32.746Z,0.80
2022-12-15T21:01:01.484Z,0.80
2022-12-15T21:03:32.948Z,0.80
2022-12-15T21:06:01.668Z,0.80
2022-12-15T21:08:32.275Z,0.80
2022-12-15T21:11:26.188Z,0.80
2022-12-15T21:13:56.718Z,0.70
2022-12-15T21:16:28.321Z,0.70
2022-12-15T21:24:42.156Z,0.80
2022-12-15T21:27:22.430Z,0.60
2022-12-15T21:29:53.219Z,0.70
2022-12-15T21:32:22.956Z,0.80
2022-12-15T21:34:51.741Z,0.80
2022-12-15T21:37:30.939Z,0.80
2022-12-15T21:40:01.676Z,0.70
2022-12-15T21:42:36.632Z,0.60
2022-12-15T21:45:19.189Z,0.60
2022-12-15T21:48:07.435Z,0.70
2022-12-15T21:50:45.104Z,0.70
2022-12-15T21:53:16.877Z,0.60
2022-12-15T21:55:47.433Z,0.60
2022-12-15T21:58:22.430Z,0.50
2022-12-15T22:00:53.113Z,0.70
2022-12-15T22:03:22.954Z,0.70
2022-12-15T22:05:51.419Z,0.60
2022-12-15T22:08:22.136Z,0.60
2022-12-15T22:10:52.058Z,0.50
2022-12-15T22:13:23.382Z,0.50
2022-12-15T22:15:52.600Z,0.50
2022-12-15T22:18:25.854Z,0.60
2022-12-15T22:20:57.139Z,0.60
2022-12-15T22:23:27.464Z,0.60
2022-12-15T22:25:58.489Z,0.60
2022-12-15T22:28:29.192Z,0.60
2022-12-15T22:30:57.857Z,0.50
2022-12-15T22:33:30.280Z,0.60
2022-12-15T22:36:01.290Z,0.60
2022-12-15T22:38:32.763Z,0.60
2022-12-15T22:41:05.169Z,0.60
2022-12-15T22:43:41.136Z,0.60
2022-12-15T22:46:13.044Z,0.60
2022-12-15T22:48:44.275Z,0.60
2022-12-15T22:51:15.304Z,0.60
2022-12-15T22:53:46.821Z,0.60
2022-12-15T22:59:09.172Z,0.60
2022-12-15T23:01:36.904Z,0.60
2022-12-15T23:04:06.885Z,0.60
2022-12-15T23:06:36.790Z,0.70
2022-12-15T23:09:05.617Z,0.70
2022-12-15T23:11:39.434Z,0.70
2022-12-15T23:14:16.419Z,0.70
2022-12-15T23:16:45.480Z,0.70
2022-12-15T23:19:26.264Z,0.70
2022-12-15T23:21:57.377Z,0.70
2022-12-15T23:24:33.671Z,0.70
2022-12-15T23:27:04.319Z,0.70
2022-12-15T23:29:35.950Z,0.70
2022-12-15T23:32:03.572Z,0.70
2022-12-15T23:34:32.252Z,0.70
2022-12-15T23:37:03.079Z,0.70
2022-12-15T23:42:15.512Z,0.80
2022-12-15T23:44:45.627Z,0.90
2022-12-15T23:47:16.057Z,0.80
2022-12-15T23:49:43.732Z,0.80
2022-12-15T23:52:12.245Z,0.80
2022-12-15T23:54:43.045Z,0.80
2022-12-15T23:57:10.529Z,0.80
2022-12-15T23:59:39.305Z,0.80
